sensor_id;sensor_type;location;lat;lon;timestamp;pressure;altitude;pressure_sealevel;temperature;humidity
54924;BME280;40825;52.270;20.984;2024-02-26T00:00:43;99706.00;;;7.67;94.20
54924;BME280;40825;52.270;20.984;2024-02-26T00:03:28;99702.75;;;7.65;94.24
54924;BME280;40825;52.270;20.984;2024-02-26T00:05:54;99704.91;;;7.62;94.13
54924;BME280;40825;52.270;20.984;2024-02-26T00:08:21;99704.52;;;7.56;94.22
54924;BME280;40825;52.270;20.984;2024-02-26T00:10:46;99704.86;;;7.48;94.07
54924;BME280;40825;52.270;20.984;2024-02-26T00:13:12;99702.38;;;7.40;94.11
54924;BME280;40825;52.270;20.984;2024-02-26T00:15:37;99700.36;;;7.32;94.12
54924;BME280;40825;52.270;20.984;2024-02-26T00:18:03;99694.08;;;7.22;94.45
54924;BME280;40825;52.270;20.984;2024-02-26T00:20:29;99692.55;;;7.14;94.43
54924;BME280;40825;52.270;20.984;2024-02-26T00:22:54;99691.98;;;7.08;94.66
54924;BME280;40825;52.270;20.984;2024-02-26T00:25:19;99691.27;;;7.01;95.18
54924;BME280;40825;52.270;20.984;2024-02-26T00:27:45;99690.94;;;6.92;95.83
54924;BME280;40825;52.270;20.984;2024-02-26T00:30:10;99686.42;;;6.81;95.97
54924;BME280;40825;52.270;20.984;2024-02-26T00:32:37;99691.76;;;6.70;97.86
54924;BME280;40825;52.270;20.984;2024-02-26T00:35:02;99696.27;;;6.64;99.21
54924;BME280;40825;52.270;20.984;2024-02-26T00:37:28;99697.20;;;6.60;99.70
54924;BME280;40825;52.270;20.984;2024-02-26T00:39:53;99694.02;;;6.57;100.00
54924;BME280;40825;52.270;20.984;2024-02-26T00:42:19;99693.73;;;6.53;99.92
54924;BME280;40825;52.270;20.984;2024-02-26T00:44:44;99687.75;;;6.49;100.00
54924;BME280;40825;52.270;20.984;2024-02-26T00:47:10;99685.02;;;6.43;100.00
54924;BME280;40825;52.270;20.984;2024-02-26T00:49:37;99682.81;;;6.41;99.95
54924;BME280;40825;52.270;20.984;2024-02-26T00:52:02;99681.52;;;6.38;100.00
54924;BME280;40825;52.270;20.984;2024-02-26T00:54:28;99679.66;;;6.34;100.00
54924;BME280;40825;52.270;20.984;2024-02-26T00:56:54;99682.38;;;6.31;100.00
54924;BME280;40825;52.270;20.984;2024-02-26T00:59:19;99680.46;;;6.28;100.00
54924;BME280;40825;52.270;20.984;2024-02-26T01:01:45;99677.56;;;6.25;100.00
54924;BME280;40825;52.270;20.984;2024-02-26T01:04:10;99678.73;;;6.23;100.00
54924;BME280;40825;52.270;20.984;2024-02-26T01:06:37;99681.06;;;6.21;100.00
54924;BME280;40825;52.270;20.984;2024-02-26T01:09:02;99682.68;;;6.18;100.00
54924;BME280;40825;52.270;20.984;2024-02-26T01:11:28;99684.57;;;6.16;100.00
54924;BME280;40825;52.270;20.984;2024-02-26T01:13:53;99683.63;;;6.15;100.00
54924;BME280;40825;52.270;20.984;2024-02-26T01:16:25;99680.27;;;6.15;100.00
54924;BME280;40825;52.270;20.984;2024-02-26T01:18:50;99681.84;;;6.14;100.00
54924;BME280;40825;52.270;20.984;2024-02-26T01:21:15;99684.80;;;6.10;100.00
54924;BME280;40825;52.270;20.984;2024-02-26T01:23:41;99681.29;;;6.05;100.00
54924;BME280;40825;52.270;20.984;2024-02-26T01:26:07;99682.62;;;6.03;100.00
54924;BME280;40825;52.270;20.984;2024-02-26T01:28:33;99682.40;;;6.03;100.00
54924;BME280;40825;52.270;20.984;2024-02-26T01:30:58;99676.29;;;6.02;100.00
54924;BME280;40825;52.270;20.984;2024-02-26T01:33:28;99670.75;;;6.00;100.00
54924;BME280;40825;52.270;20.984;2024-02-26T01:35:53;99668.80;;;5.95;100.00
54924;BME280;40825;52.270;20.984;2024-02-26T01:38:19;99668.73;;;5.91;100.00
54924;BME280;40825;52.270;20.984;2024-02-26T01:40:44;99676.63;;;5.89;100.00
54924;BME280;40825;52.270;20.984;2024-02-26T01:43:10;99677.73;;;5.84;100.00
54924;BME280;40825;52.270;20.984;2024-02-26T01:45:35;99681.70;;;5.76;100.00
54924;BME280;40825;52.270;20.984;2024-02-26T01:48:01;99679.11;;;5.71;100.00
54924;BME280;40825;52.270;20.984;2024-02-26T01:50:27;99683.61;;;5.68;100.00
54924;BME280;40825;52.270;20.984;2024-02-26T01:52:53;99682.25;;;5.62;100.00
54924;BME280;40825;52.270;20.984;2024-02-26T01:55:20;99677.70;;;5.56;100.00
54924;BME280;40825;52.270;20.984;2024-02-26T01:57:48;99676.80;;;5.48;100.00
54924;BME280;40825;52.270;20.984;2024-02-26T02:00:15;99680.16;;;5.45;100.00
54924;BME280;40825;52.270;20.984;2024-02-26T02:02:42;99684.29;;;5.41;100.00
54924;BME280;40825;52.270;20.984;2024-02-26T02:05:11;99679.45;;;5.37;100.00
54924;BME280;40825;52.270;20.984;2024-02-26T02:07:37;99673.16;;;5.32;100.00
54924;BME280;40825;52.270;20.984;2024-02-26T02:10:03;99675.48;;;5.29;100.00
54924;BME280;40825;52.270;20.984;2024-02-26T02:12:29;99672.89;;;5.23;100.00
54924;BME280;40825;52.270;20.984;2024-02-26T02:14:58;99673.85;;;5.19;100.00
54924;BME280;40825;52.270;20.984;2024-02-26T02:17:24;99673.23;;;5.17;100.00
54924;BME280;40825;52.270;20.984;2024-02-26T02:19:49;99675.92;;;5.15;100.00
54924;BME280;40825;52.270;20.984;2024-02-26T02:22:15;99677.48;;;5.09;100.00
54924;BME280;40825;52.270;20.984;2024-02-26T02:24:40;99674.45;;;5.03;100.00
54924;BME280;40825;52.270;20.984;2024-02-26T02:27:06;99679.99;;;5.01;100.00
54924;BME280;40825;52.270;20.984;2024-02-26T02:29:31;99683.87;;;4.99;100.00
54924;BME280;40825;52.270;20.984;2024-02-26T02:31:57;99684.15;;;4.97;100.00
54924;BME280;40825;52.270;20.984;2024-02-26T02:34:23;99684.28;;;4.93;100.00
54924;BME280;40825;52.270;20.984;2024-02-26T02:36:52;99689.46;;;4.92;100.00
54924;BME280;40825;52.270;20.984;2024-02-26T02:39:18;99690.49;;;4.88;100.00
54924;BME280;40825;52.270;20.984;2024-02-26T02:41:44;99692.11;;;4.87;100.00
54924;BME280;40825;52.270;20.984;2024-02-26T02:44:09;99691.35;;;4.85;100.00
54924;BME280;40825;52.270;20.984;2024-02-26T02:46:35;99695.70;;;4.81;100.00
54924;BME280;40825;52.270;20.984;2024-02-26T02:49:01;99691.95;;;4.79;100.00
54924;BME280;40825;52.270;20.984;2024-02-26T02:51:26;99690.05;;;4.78;100.00
54924;BME280;40825;52.270;20.984;2024-02-26T02:53:52;99695.62;;;4.76;100.00
54924;BME280;40825;52.270;20.984;2024-02-26T02:56:17;99697.83;;;4.70;100.00
54924;BME280;40825;52.270;20.984;2024-02-26T02:58:43;99702.33;;;4.69;100.00
54924;BME280;40825;52.270;20.984;2024-02-26T03:01:08;99698.85;;;4.71;100.00
54924;BME280;40825;52.270;20.984;2024-02-26T03:03:34;99699.21;;;4.70;100.00
54924;BME280;40825;52.270;20.984;2024-02-26T03:05:59;99703.42;;;4.67;100.00
54924;BME280;40825;52.270;20.984;2024-02-26T03:08:25;99706.14;;;4.65;100.00
54924;BME280;40825;52.270;20.984;2024-02-26T03:10:51;99709.89;;;4.67;100.00
54924;BME280;40825;52.270;20.984;2024-02-26T03:13:17;99710.38;;;4.70;100.00
54924;BME280;40825;52.270;20.984;2024-02-26T03:15:42;99716.38;;;4.72;100.00
54924;BME280;40825;52.270;20.984;2024-02-26T03:18:08;99718.58;;;4.71;100.00
54924;BME280;40825;52.270;20.984;2024-02-26T03:20:33;99716.83;;;4.68;100.00
54924;BME280;40825;52.270;20.984;2024-02-26T03:22:58;99722.58;;;4.69;100.00
54924;BME280;40825;52.270;20.984;2024-02-26T03:25:24;99718.48;;;4.68;100.00
54924;BME280;40825;52.270;20.984;2024-02-26T03:27:49;99716.77;;;4.66;100.00
54924;BME280;40825;52.270;20.984;2024-02-26T03:30:15;99715.02;;;4.67;100.00
54924;BME280;40825;52.270;20.984;2024-02-26T03:32:41;99713.86;;;4.70;100.00
54924;BME280;40825;52.270;20.984;2024-02-26T03:35:07;99723.84;;;4.71;100.00
54924;BME280;40825;52.270;20.984;2024-02-26T03:37:33;99728.90;;;4.68;100.00
54924;BME280;40825;52.270;20.984;2024-02-26T03:39:59;99722.50;;;4.65;100.00
54924;BME280;40825;52.270;20.984;2024-02-26T03:42:26;99724.29;;;4.65;100.00
54924;BME280;40825;52.270;20.984;2024-02-26T03:44:52;99725.55;;;4.64;100.00
54924;BME280;40825;52.270;20.984;2024-02-26T03:47:17;99720.34;;;4.65;100.00
54924;BME280;40825;52.270;20.984;2024-02-26T03:49:43;99720.31;;;4.66;100.00
54924;BME280;40825;52.270;20.984;2024-02-26T03:52:09;99718.13;;;4.66;100.00
54924;BME280;40825;52.270;20.984;2024-02-26T03:54:34;99720.77;;;4.68;100.00
54924;BME280;40825;52.270;20.984;2024-02-26T03:56:59;99717.48;;;4.69;100.00
54924;BME280;40825;52.270;20.984;2024-02-26T03:59:26;99715.05;;;4.70;100.00
54924;BME280;40825;52.270;20.984;2024-02-26T04:01:51;99717.95;;;4.70;100.00
54924;BME280;40825;52.270;20.984;2024-02-26T04:04:17;99725.82;;;4.68;100.00
54924;BME280;40825;52.270;20.984;2024-02-26T04:06:46;99724.70;;;4.69;100.00
54924;BME280;40825;52.270;20.984;2024-02-26T04:09:14;99717.52;;;4.72;100.00
54924;BME280;40825;52.270;20.984;2024-02-26T04:11:39;99714.84;;;4.74;100.00
54924;BME280;40825;52.270;20.984;2024-02-26T04:14:05;99714.96;;;4.75;100.00
54924;BME280;40825;52.270;20.984;2024-02-26T04:16:34;99715.92;;;4.75;100.00
54924;BME280;40825;52.270;20.984;2024-02-26T04:19:01;99713.11;;;4.77;100.00
54924;BME280;40825;52.270;20.984;2024-02-26T04:21:26;99712.61;;;4.78;100.00
54924;BME280;40825;52.270;20.984;2024-02-26T04:23:52;99714.39;;;4.80;100.00
54924;BME280;40825;52.270;20.984;2024-02-26T04:26:21;99714.48;;;4.80;100.00
54924;BME280;40825;52.270;20.984;2024-02-26T04:28:47;99716.02;;;4.78;100.00
54924;BME280;40825;52.270;20.984;2024-02-26T04:31:12;99713.97;;;4.76;100.00
54924;BME280;40825;52.270;20.984;2024-02-26T04:33:38;99715.14;;;4.75;100.00
54924;BME280;40825;52.270;20.984;2024-02-26T04:36:04;99715.92;;;4.75;100.00
54924;BME280;40825;52.270;20.984;2024-02-26T04:38:29;99713.03;;;4.78;100.00
54924;BME280;40825;52.270;20.984;2024-02-26T04:40:55;99713.14;;;4.77;100.00
54924;BME280;40825;52.270;20.984;2024-02-26T04:43:20;99711.39;;;4.75;100.00
54924;BME280;40825;52.270;20.984;2024-02-26T04:45:46;99710.77;;;4.74;100.00
54924;BME280;40825;52.270;20.984;2024-02-26T04:48:12;99712.20;;;4.73;100.00
54924;BME280;40825;52.270;20.984;2024-02-26T04:50:37;99714.05;;;4.70;100.00
54924;BME280;40825;52.270;20.984;2024-02-26T04:53:03;99716.84;;;4.67;100.00
54924;BME280;40825;52.270;20.984;2024-02-26T04:55:28;99719.49;;;4.62;100.00
54924;BME280;40825;52.270;20.984;2024-02-26T04:57:53;99722.06;;;4.53;100.00
54924;BME280;40825;52.270;20.984;2024-02-26T05:00:19;99723.49;;;4.45;100.00
54924;BME280;40825;52.270;20.984;2024-02-26T05:05:32;99720.00;;;4.38;100.00
54924;BME280;40825;52.270;20.984;2024-02-26T05:07:57;99715.48;;;4.37;100.00
54924;BME280;40825;52.270;20.984;2024-02-26T05:10:23;99715.58;;;4.38;100.00
54924;BME280;40825;52.270;20.984;2024-02-26T05:12:48;99714.91;;;4.37;100.00
54924;BME280;40825;52.270;20.984;2024-02-26T05:15:14;99721.66;;;4.35;100.00
54924;BME280;40825;52.270;20.984;2024-02-26T05:17:44;99727.20;;;4.36;100.00
54924;BME280;40825;52.270;20.984;2024-02-26T05:20:10;99728.16;;;4.39;100.00
54924;BME280;40825;52.270;20.984;2024-02-26T05:22:37;99729.27;;;4.42;100.00
54924;BME280;40825;52.270;20.984;2024-02-26T05:25:03;99730.03;;;4.44;100.00
54924;BME280;40825;52.270;20.984;2024-02-26T05:27:28;99728.77;;;4.46;100.00
54924;BME280;40825;52.270;20.984;2024-02-26T05:29:54;99731.17;;;4.48;100.00
54924;BME280;40825;52.270;20.984;2024-02-26T05:32:19;99738.42;;;4.48;100.00
54924;BME280;40825;52.270;20.984;2024-02-26T05:34:45;99742.19;;;4.48;100.00
54924;BME280;40825;52.270;20.984;2024-02-26T05:37:10;99743.96;;;4.52;100.00
54924;BME280;40825;52.270;20.984;2024-02-26T05:39:36;99748.59;;;4.55;100.00
54924;BME280;40825;52.270;20.984;2024-02-26T05:42:02;99746.86;;;4.57;100.00
54924;BME280;40825;52.270;20.984;2024-02-26T05:44:28;99749.23;;;4.61;100.00
54924;BME280;40825;52.270;20.984;2024-02-26T05:46:54;99745.64;;;4.63;100.00
54924;BME280;40825;52.270;20.984;2024-02-26T05:49:19;99749.67;;;4.63;100.00
54924;BME280;40825;52.270;20.984;2024-02-26T05:51:45;99750.33;;;4.67;100.00
54924;BME280;40825;52.270;20.984;2024-02-26T05:54:10;99748.45;;;4.73;100.00
54924;BME280;40825;52.270;20.984;2024-02-26T05:56:36;99750.10;;;4.79;100.00
54924;BME280;40825;52.270;20.984;2024-02-26T05:59:02;99746.84;;;4.83;100.00
54924;BME280;40825;52.270;20.984;2024-02-26T06:01:27;99752.52;;;4.89;100.00
54924;BME280;40825;52.270;20.984;2024-02-26T06:03:53;99752.29;;;4.94;100.00
54924;BME280;40825;52.270;20.984;2024-02-26T06:06:19;99754.20;;;5.00;100.00
54924;BME280;40825;52.270;20.984;2024-02-26T06:08:44;99758.05;;;5.05;100.00
54924;BME280;40825;52.270;20.984;2024-02-26T06:11:09;99753.07;;;5.10;100.00
54924;BME280;40825;52.270;20.984;2024-02-26T06:13:35;99753.38;;;5.16;100.00
54924;BME280;40825;52.270;20.984;2024-02-26T06:16:01;99755.32;;;5.20;100.00
54924;BME280;40825;52.270;20.984;2024-02-26T06:18:27;99759.27;;;5.24;100.00
54924;BME280;40825;52.270;20.984;2024-02-26T06:20:53;99757.29;;;5.29;100.00
54924;BME280;40825;52.270;20.984;2024-02-26T06:23:18;99756.42;;;5.37;100.00
54924;BME280;40825;52.270;20.984;2024-02-26T06:25:44;99756.20;;;5.44;100.00
54924;BME280;40825;52.270;20.984;2024-02-26T06:28:09;99759.34;;;5.52;100.00
54924;BME280;40825;52.270;20.984;2024-02-26T06:30:35;99767.08;;;5.59;100.00
54924;BME280;40825;52.270;20.984;2024-02-26T06:33:01;99767.39;;;5.60;100.00
54924;BME280;40825;52.270;20.984;2024-02-26T06:35:27;99768.48;;;5.63;100.00
54924;BME280;40825;52.270;20.984;2024-02-26T06:37:52;99767.41;;;5.67;100.00
54924;BME280;40825;52.270;20.984;2024-02-26T06:40:21;99773.63;;;5.71;100.00
54924;BME280;40825;52.270;20.984;2024-02-26T06:42:47;99778.75;;;5.72;100.00
54924;BME280;40825;52.270;20.984;2024-02-26T06:45:12;99776.00;;;5.73;100.00
54924;BME280;40825;52.270;20.984;2024-02-26T06:47:38;99778.66;;;5.76;100.00
54924;BME280;40825;52.270;20.984;2024-02-26T06:50:03;99780.48;;;5.82;100.00
54924;BME280;40825;52.270;20.984;2024-02-26T06:52:29;99776.37;;;5.89;100.00
54924;BME280;40825;52.270;20.984;2024-02-26T06:54:54;99770.33;;;6.03;100.00
54924;BME280;40825;52.270;20.984;2024-02-26T06:57:20;99770.20;;;6.22;100.00
54924;BME280;40825;52.270;20.984;2024-02-26T06:59:46;99771.42;;;6.57;100.00
54924;BME280;40825;52.270;20.984;2024-02-26T07:02:15;99773.52;;;7.30;100.00
54924;BME280;40825;52.270;20.984;2024-02-26T07:04:42;99777.36;;;7.96;100.00
54924;BME280;40825;52.270;20.984;2024-02-26T07:07:08;99780.48;;;8.65;100.00
54924;BME280;40825;52.270;20.984;2024-02-26T07:09:33;99781.30;;;9.39;100.00
54924;BME280;40825;52.270;20.984;2024-02-26T07:11:59;99783.46;;;10.02;100.00
54924;BME280;40825;52.270;20.984;2024-02-26T07:14:24;99785.16;;;10.47;99.76
54924;BME280;40825;52.270;20.984;2024-02-26T07:16:50;99782.62;;;10.91;99.22
54924;BME280;40825;52.270;20.984;2024-02-26T07:19:16;99787.83;;;11.41;100.00
54924;BME280;40825;52.270;20.984;2024-02-26T07:21:41;99787.98;;;11.95;99.60
54924;BME280;40825;52.270;20.984;2024-02-26T07:24:07;99786.67;;;12.16;96.15
54924;BME280;40825;52.270;20.984;2024-02-26T07:26:32;99796.32;;;12.30;96.10
54924;BME280;40825;52.270;20.984;2024-02-26T07:28:58;99795.67;;;12.44;100.00
54924;BME280;40825;52.270;20.984;2024-02-26T07:31:23;99800.01;;;12.60;96.73
54924;BME280;40825;52.270;20.984;2024-02-26T07:33:49;99797.35;;;12.53;95.86
54924;BME280;40825;52.270;20.984;2024-02-26T07:36:14;99798.30;;;12.48;96.90
54924;BME280;40825;52.270;20.984;2024-02-26T07:38:40;99804.06;;;12.67;100.00
54924;BME280;40825;52.270;20.984;2024-02-26T07:41:05;99801.36;;;12.79;100.00
54924;BME280;40825;52.270;20.984;2024-02-26T07:43:31;99804.27;;;12.61;98.97
54924;BME280;40825;52.270;20.984;2024-02-26T07:45:57;99806.83;;;12.35;96.18
54924;BME280;40825;52.270;20.984;2024-02-26T07:48:23;99806.84;;;12.00;94.89
54924;BME280;40825;52.270;20.984;2024-02-26T07:50:48;99809.58;;;11.79;98.38
54924;BME280;40825;52.270;20.984;2024-02-26T07:53:14;99805.46;;;11.65;97.06
54924;BME280;40825;52.270;20.984;2024-02-26T07:55:39;99809.58;;;11.49;98.21
54924;BME280;40825;52.270;20.984;2024-02-26T07:58:05;99808.71;;;11.51;96.92
54924;BME280;40825;52.270;20.984;2024-02-26T08:00:30;99812.03;;;11.65;94.77
54924;BME280;40825;52.270;20.984;2024-02-26T08:02:56;99813.42;;;11.76;95.56
54924;BME280;40825;52.270;20.984;2024-02-26T08:05:21;99815.73;;;11.96;97.58
54924;BME280;40825;52.270;20.984;2024-02-26T08:07:47;99815.54;;;12.15;96.32
54924;BME280;40825;52.270;20.984;2024-02-26T08:10:12;99821.07;;;12.36;96.90
54924;BME280;40825;52.270;20.984;2024-02-26T08:12:38;99817.98;;;12.54;99.31
54924;BME280;40825;52.270;20.984;2024-02-26T08:15:05;99819.45;;;12.58;95.22
54924;BME280;40825;52.270;20.984;2024-02-26T08:17:30;99822.17;;;12.39;92.11
54924;BME280;40825;52.270;20.984;2024-02-26T08:19:59;99821.95;;;12.30;96.53
54924;BME280;40825;52.270;20.984;2024-02-26T08:22:24;99821.14;;;12.32;96.95
54924;BME280;40825;52.270;20.984;2024-02-26T08:24:50;99822.98;;;12.28;92.00
54924;BME280;40825;52.270;20.984;2024-02-26T08:27:15;99822.08;;;12.15;92.03
54924;BME280;40825;52.270;20.984;2024-02-26T08:29:41;99822.73;;;11.96;90.27
54924;BME280;40825;52.270;20.984;2024-02-26T08:32:06;99822.55;;;11.87;92.61
54924;BME280;40825;52.270;20.984;2024-02-26T08:34:32;99824.05;;;11.81;92.63
54924;BME280;40825;52.270;20.984;2024-02-26T08:36:58;99827.25;;;11.73;92.08
54924;BME280;40825;52.270;20.984;2024-02-26T08:39:23;99832.39;;;11.62;92.87
54924;BME280;40825;52.270;20.984;2024-02-26T08:41:49;99833.73;;;11.57;93.71
54924;BME280;40825;52.270;20.984;2024-02-26T08:44:15;99833.25;;;11.54;94.59
54924;BME280;40825;52.270;20.984;2024-02-26T08:46:41;99832.53;;;11.58;94.65
54924;BME280;40825;52.270;20.984;2024-02-26T08:49:06;99835.84;;;11.70;94.58
54924;BME280;40825;52.270;20.984;2024-02-26T08:51:32;99835.77;;;11.75;93.84
54924;BME280;40825;52.270;20.984;2024-02-26T08:53:57;99834.27;;;11.78;93.86
54924;BME280;40825;52.270;20.984;2024-02-26T08:56:23;99835.73;;;11.80;94.05
54924;BME280;40825;52.270;20.984;2024-02-26T08:58:48;99837.76;;;11.89;94.02
54924;BME280;40825;52.270;20.984;2024-02-26T09:01:16;99837.66;;;11.99;93.65
54924;BME280;40825;52.270;20.984;2024-02-26T09:03:41;99837.04;;;12.06;93.96
54924;BME280;40825;52.270;20.984;2024-02-26T09:06:07;99837.88;;;12.16;93.96
54924;BME280;40825;52.270;20.984;2024-02-26T09:08:33;99835.23;;;12.30;93.71
54924;BME280;40825;52.270;20.984;2024-02-26T09:10:58;99837.42;;;12.36;93.23
54924;BME280;40825;52.270;20.984;2024-02-26T09:13:24;99837.48;;;12.39;91.88
54924;BME280;40825;52.270;20.984;2024-02-26T09:15:49;99841.38;;;12.41;91.77
54924;BME280;40825;52.270;20.984;2024-02-26T09:18:15;99842.08;;;12.48;91.48
54924;BME280;40825;52.270;20.984;2024-02-26T09:20:41;99848.03;;;12.56;91.46
54924;BME280;40825;52.270;20.984;2024-02-26T09:23:07;99849.41;;;12.53;91.48
54924;BME280;40825;52.270;20.984;2024-02-26T09:25:32;99847.27;;;12.48;90.98
54924;BME280;40825;52.270;20.984;2024-02-26T09:27:59;99846.62;;;12.57;91.65
54924;BME280;40825;52.270;20.984;2024-02-26T09:30:24;99847.73;;;12.62;91.62
54924;BME280;40825;52.270;20.984;2024-02-26T09:32:50;99845.28;;;12.65;91.04
54924;BME280;40825;52.270;20.984;2024-02-26T09:35:15;99846.16;;;12.52;90.73
54924;BME280;40825;52.270;20.984;2024-02-26T09:37:41;99846.67;;;12.65;92.15
54924;BME280;40825;52.270;20.984;2024-02-26T09:40:09;99842.95;;;12.78;90.01
54924;BME280;40825;52.270;20.984;2024-02-26T09:42:44;99844.41;;;12.94;90.48
54924;BME280;40825;52.270;20.984;2024-02-26T09:45:12;99844.05;;;13.10;89.81
54924;BME280;40825;52.270;20.984;2024-02-26T09:47:42;99850.84;;;13.21;88.82
54924;BME280;40825;52.270;20.984;2024-02-26T09:50:09;99849.36;;;13.16;87.91
54924;BME280;40825;52.270;20.984;2024-02-26T09:52:39;99849.71;;;13.21;88.38
54924;BME280;40825;52.270;20.984;2024-02-26T09:55:07;99853.09;;;13.37;87.84
54924;BME280;40825;52.270;20.984;2024-02-26T09:57:36;99856.05;;;13.38;87.96
54924;BME280;40825;52.270;20.984;2024-02-26T10:00:03;99860.23;;;13.26;87.53
54924;BME280;40825;52.270;20.984;2024-02-26T10:02:33;99863.34;;;13.06;87.90
54924;BME280;40825;52.270;20.984;2024-02-26T10:05:02;99868.77;;;12.90;89.13
54924;BME280;40825;52.270;20.984;2024-02-26T10:07:30;99869.67;;;13.02;89.84
54924;BME280;40825;52.270;20.984;2024-02-26T10:09:56;99873.86;;;13.02;89.22
54924;BME280;40825;52.270;20.984;2024-02-26T10:12:23;99870.61;;;12.90;89.87
54924;BME280;40825;52.270;20.984;2024-02-26T10:14:51;99873.17;;;12.84;89.88
54924;BME280;40825;52.270;20.984;2024-02-26T10:17:16;99874.31;;;12.61;90.58
54924;BME280;40825;52.270;20.984;2024-02-26T10:19:44;99878.13;;;12.32;91.85
54924;BME280;40825;52.270;20.984;2024-02-26T10:22:09;99880.10;;;12.10;92.68
54924;BME280;40825;52.270;20.984;2024-02-26T10:24:35;99874.66;;;11.92;93.18
54924;BME280;40825;52.270;20.984;2024-02-26T10:27:01;99876.50;;;11.83;94.15
54924;BME280;40825;52.270;20.984;2024-02-26T10:29:27;99875.62;;;11.77;94.73
54924;BME280;40825;52.270;20.984;2024-02-26T10:31:52;99875.77;;;11.69;95.49
54924;BME280;40825;52.270;20.984;2024-02-26T10:34:19;99879.15;;;11.58;96.22
54924;BME280;40825;52.270;20.984;2024-02-26T10:36:45;99883.51;;;11.44;96.64
54924;BME280;40825;52.270;20.984;2024-02-26T10:39:14;99883.70;;;11.24;97.44
54924;BME280;40825;52.270;20.984;2024-02-26T10:41:40;99881.84;;;11.14;97.57
54924;BME280;40825;52.270;20.984;2024-02-26T10:44:09;99880.15;;;11.10;97.50
54924;BME280;40825;52.270;20.984;2024-02-26T10:46:37;99879.33;;;11.07;98.40
54924;BME280;40825;52.270;20.984;2024-02-26T10:49:02;99877.30;;;11.07;98.88
54924;BME280;40825;52.270;20.984;2024-02-26T10:51:30;99882.77;;;11.10;98.74
54924;BME280;40825;52.270;20.984;2024-02-26T10:53:57;99880.73;;;11.14;98.90
54924;BME280;40825;52.270;20.984;2024-02-26T10:56:28;99876.08;;;11.13;98.75
54924;BME280;40825;52.270;20.984;2024-02-26T10:58:58;99879.03;;;11.09;99.13
54924;BME280;40825;52.270;20.984;2024-02-26T11:01:24;99878.45;;;11.11;98.72
54924;BME280;40825;52.270;20.984;2024-02-26T11:03:52;99879.65;;;11.11;98.83
54924;BME280;40825;52.270;20.984;2024-02-26T11:06:21;99879.12;;;11.08;99.21
54924;BME280;40825;52.270;20.984;2024-02-26T11:08:49;99873.48;;;11.11;99.08
54924;BME280;40825;52.270;20.984;2024-02-26T11:11:16;99870.40;;;11.17;98.81
54924;BME280;40825;52.270;20.984;2024-02-26T11:13:44;99867.50;;;11.25;98.87
54924;BME280;40825;52.270;20.984;2024-02-26T11:16:16;99867.63;;;11.31;97.97
54924;BME280;40825;52.270;20.984;2024-02-26T11:18:43;99867.75;;;11.27;97.47
54924;BME280;40825;52.270;20.984;2024-02-26T11:21:15;99866.34;;;11.30;97.32
54924;BME280;40825;52.270;20.984;2024-02-26T11:23:42;99861.64;;;11.37;97.12
54924;BME280;40825;52.270;20.984;2024-02-26T11:26:09;99860.60;;;11.54;97.11
54924;BME280;40825;52.270;20.984;2024-02-26T11:28:36;99862.98;;;11.61;96.03
54924;BME280;40825;52.270;20.984;2024-02-26T11:31:03;99866.17;;;11.73;96.53
54924;BME280;40825;52.270;20.984;2024-02-26T11:33:30;99867.46;;;11.78;95.28
54924;BME280;40825;52.270;20.984;2024-02-26T11:35:55;99865.84;;;11.75;95.25
54924;BME280;40825;52.270;20.984;2024-02-26T11:38:23;99864.70;;;11.78;95.16
54924;BME280;40825;52.270;20.984;2024-02-26T11:40:49;99863.34;;;11.79;95.29
54924;BME280;40825;52.270;20.984;2024-02-26T11:43:15;99866.79;;;11.72;94.30
54924;BME280;40825;52.270;20.984;2024-02-26T11:48:16;99856.88;;;11.69;95.21
54924;BME280;40825;52.270;20.984;2024-02-26T11:50:46;99856.96;;;11.68;94.86
54924;BME280;40825;52.270;20.984;2024-02-26T11:53:25;99858.30;;;11.68;94.27
54924;BME280;40825;52.270;20.984;2024-02-26T11:56:20;99858.55;;;11.65;94.09
54924;BME280;40825;52.270;20.984;2024-02-26T11:58:54;99859.25;;;11.67;94.62
54924;BME280;40825;52.270;20.984;2024-02-26T12:04:20;99855.23;;;11.76;94.03
54924;BME280;40825;52.270;20.984;2024-02-26T12:06:50;99856.35;;;11.81;93.79
54924;BME280;40825;52.270;20.984;2024-02-26T12:12:07;99854.57;;;11.93;93.64
54924;BME280;40825;52.270;20.984;2024-02-26T12:14:40;99851.70;;;11.96;93.30
54924;BME280;40825;52.270;20.984;2024-02-26T12:17:23;99859.17;;;12.01;92.25
54924;BME280;40825;52.270;20.984;2024-02-26T12:19:49;99854.40;;;12.03;92.12
54924;BME280;40825;52.270;20.984;2024-02-26T12:22:16;99854.73;;;12.07;91.53
54924;BME280;40825;52.270;20.984;2024-02-26T12:24:43;99854.27;;;12.14;92.04
54924;BME280;40825;52.270;20.984;2024-02-26T12:27:09;99855.77;;;12.23;91.26
54924;BME280;40825;52.270;20.984;2024-02-26T12:29:34;99853.63;;;12.26;90.40
54924;BME280;40825;52.270;20.984;2024-02-26T12:32:01;99853.91;;;12.26;90.73
54924;BME280;40825;52.270;20.984;2024-02-26T12:34:27;99856.05;;;12.28;90.06
54924;BME280;40825;52.270;20.984;2024-02-26T12:36:54;99853.36;;;12.29;90.14
54924;BME280;40825;52.270;20.984;2024-02-26T12:39:20;99853.59;;;12.32;89.64
54924;BME280;40825;52.270;20.984;2024-02-26T12:41:46;99854.29;;;12.39;90.76
54924;BME280;40825;52.270;20.984;2024-02-26T12:44:19;99856.77;;;12.48;90.98
54924;BME280;40825;52.270;20.984;2024-02-26T12:46:49;99850.77;;;12.53;89.01
54924;BME280;40825;52.270;20.984;2024-02-26T12:49:16;99853.62;;;12.58;88.86
54924;BME280;40825;52.270;20.984;2024-02-26T12:51:44;99853.34;;;12.62;89.09
54924;BME280;40825;52.270;20.984;2024-02-26T12:54:10;99851.85;;;12.63;86.90
54924;BME280;40825;52.270;20.984;2024-02-26T12:56:36;99854.81;;;12.67;86.44